Time;durP1;ratioP1;P1;durP2;ratioP2;P2;SDS_P1;SDS_P2;PMS_P1;PMS_P2;Temp;Humidity;BMP_temperature;BMP_pressure;BME280_temperature;BME280_humidity;BME280_pressure;Samples;Min_cycle;Max_cycle;Signal;HPM_P1;HPM_P2
2021/05/02 00:01:09;;;;;;;11.00;6.12;;;;;;;21.14;56.47;98641.63;4487284;31;33369;-83
2021/05/02 00:03:36;;;;;;;12.25;5.93;;;;;;;21.15;56.31;98643.31;4474248;31;33806;-83
2021/05/02 00:06:05;;;;;;;13.77;5.65;;;;;;;21.33;55.80;98639.53;4487175;31;34281;-83
2021/05/02 00:08:33;;;;;;;10.15;5.50;;;;;;;21.28;55.84;98636.31;4473609;31;33736;-84
2021/05/02 00:11:01;;;;;;;11.52;5.30;;;;;;;21.17;56.04;98629.06;4474017;31;32727;-84
2021/05/02 00:13:28;;;;;;;7.82;5.60;;;;;;;21.26;55.63;98628.50;4488062;31;34692;-83
2021/05/02 00:15:55;;;;;;;12.65;5.65;;;;;;;21.15;55.92;98627.47;4488959;31;34587;-83
2021/05/02 00:18:24;;;;;;;10.95;4.90;;;;;;;21.17;55.75;98636.16;4488814;31;33520;-83
2021/05/02 00:20:55;;;;;;;12.43;5.60;;;;;;;21.08;56.10;98631.44;4489150;31;33351;-83
2021/05/02 00:23:23;;;;;;;8.43;5.17;;;;;;;21.11;55.91;98628.59;4475791;31;33303;-83
2021/05/02 00:25:55;;;;;;;;;;;;;;;21.10;55.94;98629.53;4489797;31;34388;-83
2021/05/02 00:28:22;;;;;;;8.20;5.78;;;;;;;21.20;55.65;98613.03;4489077;31;34328;-83
2021/05/02 00:30:50;;;;;;;10.95;5.20;;;;;;;21.13;55.85;98602.91;4488792;31;34238;-83
2021/05/02 00:33:17;;;;;;;12.65;5.15;;;;;;;21.12;55.85;98607.34;4488984;31;33784;-83
2021/05/02 00:35:48;;;;;;;8.63;4.40;;;;;;;21.17;55.69;98610.56;4488991;31;34161;-84
2021/05/02 00:38:15;;;;;;;9.57;4.80;;;;;;;21.07;55.89;98603.28;4476058;31;33549;-84
2021/05/02 00:40:43;;;;;;;10.00;5.20;;;;;;;21.12;55.65;98602.06;4489035;31;33387;-83
2021/05/02 00:43:12;;;;;;;7.85;4.72;;;;;;;21.13;55.63;98597.63;4502911;31;33726;-83
2021/05/02 00:46:01;;;;;;;9.18;4.68;;;;;;;21.01;55.97;98593.06;4475733;31;34391;-83
2021/05/02 00:48:49;;;;;;;9.07;4.93;;;;;;;21.01;55.93;98590.41;4475978;31;33371;-83
2021/05/02 00:51:17;;;;;;;8.65;4.85;;;;;;;21.07;55.69;98582.97;4488869;31;33320;-83
2021/05/02 00:54:05;;;;;;;14.02;5.32;;;;;;;21.02;55.78;98578.88;4477662;31;33637;-83
2021/05/02 00:56:35;;;;;;;10.25;5.25;;;;;;;21.11;55.46;98578.38;4488657;31;34352;-83
2021/05/02 00:59:19;;;;;;;10.88;4.82;;;;;;;21.12;55.31;98575.63;4502869;31;34337;-83
2021/05/02 01:01:52;;;;;;;11.00;5.12;;;;;;;21.04;55.52;98571.72;4475804;31;33490;-83
2021/05/02 01:04:42;;;;;;;8.10;5.07;;;;;;;21.10;55.30;98568.72;4488600;31;32988;-83
2021/05/02 01:07:20;;;;;;;7.80;4.72;;;;;;;21.21;55.00;98568.91;4488651;31;34344;-83
2021/05/02 01:09:49;;;;;;;10.68;5.22;;;;;;;21.15;55.21;98561.37;4502892;31;33934;-83
2021/05/02 01:12:19;;;;;;;12.88;5.53;;;;;;;21.18;55.12;98546.16;4502762;31;32703;-83
2021/05/02 01:14:53;;;;;;;8.27;4.78;;;;;;;20.96;55.78;98542.28;4488692;31;34600;-84
2021/05/02 01:17:22;;;;;;;10.88;4.85;;;;;;;21.06;55.48;98549.56;4475449;31;35434;-83
2021/05/02 01:19:49;;;;;;;10.35;4.93;;;;;;;21.04;55.55;98543.47;4475425;31;34316;-83
2021/05/02 01:22:19;;;;;;;13.18;5.10;;;;;;;20.98;55.78;98535.94;4475371;31;32869;-83
2021/05/02 01:24:49;;;;;;;10.30;5.00;;;;;;;20.99;55.81;98531.53;4474865;31;34283;-83
2021/05/02 01:27:28;;;;;;;10.75;4.95;;;;;;;20.98;55.80;98535.94;4488376;31;33730;-83
2021/05/02 01:29:56;;;;;;;11.27;5.25;;;;;;;21.03;55.68;98536.50;4488471;31;34248;-83
2021/05/02 01:32:26;;;;;;;9.52;4.90;;;;;;;21.01;55.70;98540.19;4475533;31;34002;-82
2021/05/02 01:34:54;;;;;;;10.32;5.47;;;;;;;21.04;55.66;98545.31;4488767;31;34136;-82
2021/05/02 01:37:21;;;;;;;11.20;4.82;;;;;;;20.99;55.84;98540.28;4502864;31;34997;-83
2021/05/02 01:39:49;;;;;;;9.98;5.18;;;;;;;20.92;56.02;98541.59;4475623;31;33628;-82
2021/05/02 01:42:16;;;;;;;12.80;5.10;;;;;;;21.07;55.53;98530.13;4488398;31;33374;-83
2021/05/02 01:44:44;;;;;;;11.88;5.10;;;;;;;21.01;55.74;98535.75;4488214;31;33987;-82
2021/05/02 01:47:17;;;;;;;13.60;5.53;;;;;;;20.98;55.97;98529.81;4475820;31;34483;-82
2021/05/02 01:50:00;;;;;;;13.48;5.20;;;;;;;20.87;56.50;98517.28;4502558;31;34720;-83
2021/05/02 01:52:36;;;;;;;14.13;6.03;;;;;;;20.86;56.43;98521.69;4489166;31;33859;-82
2021/05/02 01:55:05;;;;;;;12.60;5.40;;;;;;;20.83;56.37;98518.38;4488303;31;34089;-84
2021/05/02 01:57:33;;;;;;;15.80;5.90;;;;;;;20.91;56.00;98518.78;4488177;31;34470;-84
2021/05/02 02:00:07;;;;;;;11.70;5.53;;;;;;;20.86;56.17;98515.56;4475102;31;33230;-83
2021/05/02 02:02:36;;;;;;;13.73;5.85;;;;;;;20.91;55.98;98518.78;4475179;31;33652;-84
2021/05/02 02:05:05;;;;;;;13.73;6.07;;;;;;;20.92;55.99;98520.44;4488302;31;34566;-84
2021/05/02 02:07:33;;;;;;;11.57;5.12;;;;;;;21.02;55.71;98526.00;4462250;31;33773;-84
2021/05/02 02:10:04;;;;;;;13.38;6.03;;;;;;;20.98;55.96;98529.81;4488576;31;34115;-83
2021/05/02 02:12:31;;;;;;;14.23;5.93;;;;;;;20.93;56.05;98524.81;4488284;31;33532;-84
2021/05/02 02:14:58;;;;;;;11.43;5.53;;;;;;;21.00;55.83;98535.84;4488150;31;33894;-83
2021/05/02 02:17:26;;;;;;;14.68;6.47;;;;;;;20.97;55.92;98528.13;4475235;31;34306;-83
2021/05/02 02:19:54;;;;;;;14.00;6.37;;;;;;;20.56;57.21;98523.56;4475190;31;34170;-83
2021/05/02 02:22:21;;;;;;;16.08;5.60;;;;;;;20.80;56.51;98524.69;4488306;31;33388;-83
2021/05/02 02:24:59;;;;;;;11.10;5.80;;;;;;;20.86;56.39;98527.00;4475066;31;33650;-83
2021/05/02 02:27:27;;;;;;;13.27;6.07;;;;;;;20.83;56.46;98529.81;4474986;31;34008;-84
2021/05/02 02:30:06;;;;;;;11.80;5.60;;;;;;;20.88;56.25;98525.09;4475070;31;33683;-83
2021/05/02 02:32:35;;;;;;;11.95;5.82;;;;;;;20.79;56.70;98525.66;4502465;31;33396;-83
2021/05/02 02:35:04;;;;;;;11.38;5.82;;;;;;;20.65;57.07;98516.88;4474624;31;33747;-83
2021/05/02 02:37:31;;;;;;;14.63;5.97;;;;;;;20.57;57.23;98508.56;4474542;31;34300;-83
2021/05/02 02:40:04;;;;;;;9.70;6.37;;;;;;;20.78;56.69;98521.31;4474883;31;34837;-83
2021/05/02 02:42:35;;;;;;;18.90;6.95;;;;;;;20.71;56.86;98527.91;4475079;31;33622;-83
2021/05/02 02:45:06;;;;;;;12.88;6.15;;;;;;;20.84;56.41;98536.81;4474735;31;33133;-83
2021/05/02 02:47:40;;;;;;;16.00;5.70;;;;;;;20.76;56.61;98533.78;4475426;31;34326;-83
2021/05/02 02:50:10;;;;;;;12.95;6.05;;;;;;;20.68;57.03;98529.91;4487927;31;33868;-83
2021/05/02 02:53:02;;;;;;;12.00;6.65;;;;;;;20.21;58.46;98537.97;4474758;31;32724;-83
2021/05/02 02:55:31;;;;;;;15.57;6.97;;;;;;;20.33;58.14;98532.00;4487983;31;34900;-83
2021/05/02 02:58:00;;;;;;;16.25;6.57;;;;;;;20.30;58.22;98526.91;4475179;31;35251;-83
2021/05/02 03:00:30;;;;;;;15.68;6.82;;;;;;;20.38;57.92;98524.66;4502295;31;34380;-84
2021/05/02 03:03:10;;;;;;;16.35;6.50;;;;;;;20.44;57.63;98523.47;4474870;31;34417;-82
2021/05/02 03:05:38;;;;;;;14.35;6.95;;;;;;;20.55;57.23;98513.94;4474960;31;33800;-83
2021/05/02 03:08:08;;;;;;;16.02;6.45;;;;;;;20.58;57.14;98513.78;4487971;31;35338;-82
2021/05/02 03:10:39;;;;;;;16.85;6.80;;;;;;;20.66;57.12;98513.28;4502221;31;34207;-82
2021/05/02 03:13:07;;;;;;;14.52;6.93;;;;;;;20.53;57.69;98507.91;4487692;31;34221;-83
2021/05/02 03:15:34;;;;;;;11.75;6.37;;;;;;;20.49;57.92;98514.31;4487693;31;34447;-83
2021/05/02 03:18:10;;;;;;;14.30;6.30;;;;;;;20.54;57.77;98509.59;4487845;31;34529;-83
2021/05/02 03:20:38;;;;;;;19.87;7.90;;;;;;;20.46;58.04;98505.72;4487631;31;34449;-83
2021/05/02 03:23:13;;;;;;;13.82;6.40;;;;;;;20.61;57.52;98508.28;4487549;31;33455;-83
2021/05/02 03:25:46;;;;;;;13.90;6.80;;;;;;;20.38;58.37;98506.19;4501702;31;35082;-83
2021/05/02 03:28:30;;;;;;;13.38;6.97;;;;;;;20.41;58.34;98513.94;4474704;31;34343;-82
2021/05/02 03:30:59;;;;;;;13.13;6.30;;;;;;;20.51;58.11;98520.38;4487481;31;34111;-83
2021/05/02 03:33:28;;;;;;;17.23;6.87;;;;;;;20.44;58.48;98518.19;4474659;31;33645;-83
2021/05/02 03:35:55;;;;;;;14.40;6.72;;;;;;;20.54;58.18;98521.97;4474321;31;33339;-83
2021/05/02 03:38:41;;;;;;;15.38;7.37;;;;;;;20.52;58.17;98523.84;4487015;31;34285;-83
2021/05/02 03:41:08;;;;;;;16.67;6.95;;;;;;;20.53;58.11;98513.19;4487017;31;33934;-82
2021/05/02 03:43:37;;;;;;;16.65;7.37;;;;;;;20.56;57.84;98505.06;4501333;31;33541;-83
2021/05/02 03:46:04;;;;;;;17.12;7.22;;;;;;;20.49;58.03;98505.56;4474853;31;33634;-82
2021/05/02 03:48:32;;;;;;;14.10;6.60;;;;;;;20.57;57.61;98514.69;4486920;31;34225;-83
2021/05/02 03:51:00;;;;;;;18.80;7.00;;;;;;;20.58;57.39;98512.91;4474619;31;33997;-83
2021/05/02 03:53:27;;;;;;;17.42;7.37;;;;;;;20.63;57.08;98519.62;4474107;31;32955;-83
2021/05/02 03:55:54;;;;;;;16.27;7.57;;;;;;;20.52;57.78;98511.47;4487330;31;34633;-83
2021/05/02 03:58:22;;;;;;;13.93;7.18;;;;;;;20.56;57.77;98512.16;4474238;31;34296;-83
2021/05/02 04:00:49;;;;;;;13.85;7.45;;;;;;;20.49;57.89;98511.66;4501403;31;34003;-83
2021/05/02 04:03:16;;;;;;;16.67;7.85;;;;;;;20.43;57.92;98517.31;4487173;31;33337;-83
2021/05/02 04:05:44;;;;;;;14.80;7.07;;;;;;;20.46;57.75;98511.00;4501303;31;35032;-83
2021/05/02 04:08:11;;;;;;;17.60;7.55;;;;;;;20.33;58.09;98507.41;4486897;31;34407;-83
2021/05/02 04:10:41;;;;;;;22.98;8.50;;;;;;;20.26;58.30;98509.56;4486999;31;35349;-83
2021/05/02 04:13:08;;;;;;;18.45;7.47;;;;;;;20.39;58.22;98505.25;4473960;31;32844;-82
2021/05/02 04:15:35;;;;;;;19.80;7.95;;;;;;;20.42;57.99;98514.78;4473979;31;33801;-83
2021/05/02 04:18:03;;;;;;;17.23;7.60;;;;;;;20.42;58.03;98510.34;4501146;31;34325;-83
2021/05/02 04:20:30;;;;;;;21.08;7.68;;;;;;;20.41;58.02;98524.50;4473792;31;34793;-83
2021/05/02 04:22:57;;;;;;;22.80;9.15;;;;;;;20.51;57.84;98527.44;4473739;31;32630;-83
2021/05/02 04:25:25;;;;;;;26.05;9.98;;;;;;;20.49;57.88;98532.78;4486767;31;33807;-83
2021/05/02 04:27:52;;;;;;;18.02;9.10;;;;;;;20.41;58.19;98545.63;4473756;31;33886;-83
2021/05/02 04:30:19;;;;;;;17.92;8.27;;;;;;;20.38;58.33;98535.22;4486775;31;33925;-83
2021/05/02 04:32:46;;;;;;;21.50;8.48;;;;;;;20.40;58.13;98538.63;4486527;31;32878;-83
2021/05/02 04:35:14;;;;;;;18.45;7.65;;;;;;;20.43;57.99;98533.16;4486526;31;33785;-83
2021/05/02 04:37:44;;;;;;;18.02;8.20;;;;;;;20.57;57.41;98545.53;4501038;31;35277;-83
2021/05/02 04:40:11;;;;;;;17.62;7.75;;;;;;;20.64;57.07;98541.59;4486396;31;33546;-82
2021/05/02 04:42:41;;;;;;;19.23;7.90;;;;;;;20.60;57.24;98546.22;4486523;31;33515;-83
2021/05/02 04:45:09;;;;;;;23.23;8.05;;;;;;;20.66;57.10;98542.34;4500517;31;34132;-83
2021/05/02 04:47:37;;;;;;;18.58;7.45;;;;;;;20.69;56.89;98539.53;4487099;31;35334;-83
2021/05/02 04:50:05;;;;;;;21.85;8.05;;;;;;;20.68;56.91;98530.72;4500663;31;34020;-83
2021/05/02 04:52:33;;;;;;;14.45;6.80;;;;;;;20.60;57.06;98533.00;4486432;31;33974;-83
2021/05/02 04:55:00;;;;;;;16.67;7.55;;;;;;;20.72;56.65;98534.91;4486208;31;34239;-83
2021/05/02 04:57:31;;;;;;;18.83;7.20;;;;;;;20.67;56.96;98526.41;4486205;31;34569;-83
2021/05/02 04:59:58;;;;;;;15.07;6.90;;;;;;;20.74;56.76;98532.16;4474765;31;34266;-83
2021/05/02 05:02:25;;;;;;;20.23;6.62;;;;;;;20.86;56.22;98544.63;4488615;31;34640;-83
2021/05/02 05:04:54;;;;;;;14.32;6.57;;;;;;;20.80;56.40;98552.94;4475441;31;34149;-83
2021/05/02 05:07:21;;;;;;;16.90;6.53;;;;;;;20.90;56.26;98554.91;4475395;31;35190;-83
2021/05/02 05:09:48;;;;;;;18.62;6.90;;;;;;;20.90;56.29;98552.28;4502714;31;35265;-83
2021/05/02 05:12:15;;;;;;;15.63;6.40;;;;;;;21.02;55.40;98539.22;4475467;31;32776;-83
2021/05/02 05:14:43;;;;;;;16.23;6.72;;;;;;;20.94;55.81;98537.91;4488490;31;34566;-82
2021/05/02 05:17:10;;;;;;;14.45;6.47;;;;;;;21.07;55.60;98537.19;4475426;31;34011;-83
2021/05/02 05:19:38;;;;;;;17.12;6.75;;;;;;;21.03;55.40;98536.50;4488612;31;34345;-83
2021/05/02 14:17:48;;;;;;;1.27;0.62;;;;;;;16.51;43.36;99222.03;4480545;32;103514;-88
2021/05/02 14:20:17;;;;;;;4.20;0.60;;;;;;;16.61;43.61;99212.94;4450388;32;35248;-85
2021/05/02 14:22:44;;;;;;;0.70;0.60;;;;;;;16.52;44.14;99207.97;4457437;32;33343;-87
2021/05/02 14:25:12;;;;;;;2.65;0.60;;;;;;;16.71;43.03;99209.06;4457105;32;34814;-85
2021/05/02 14:27:39;;;;;;;0.70;0.60;;;;;;;16.70;42.25;99223.13;4433667;32;34954;-86
2021/05/02 14:30:07;;;;;;;0.82;0.55;;;;;;;16.50;42.92;99240.41;4486867;32;34877;-83
2021/05/02 14:32:44;;;;;;;0.80;0.50;;;;;;;16.62;40.64;99253.16;4446888;32;32930;-85
2021/05/02 14:35:11;;;;;;;0.90;0.52;;;;;;;16.52;41.13;99255.22;4462315;32;33623;-84
2021/05/02 14:37:38;;;;;;;1.05;0.50;;;;;;;16.61;39.76;99262.84;4467623;32;34374;-85
2021/05/02 14:40:06;;;;;;;0.98;0.57;;;;;;;16.39;40.65;99253.91;4481252;32;34219;-85
2021/05/02 14:42:34;;;;;;;1.95;0.57;;;;;;;16.76;40.04;99272.81;4487569;32;34908;-85
2021/05/02 14:45:01;;;;;;;2.67;0.70;;;;;;;16.89;39.97;99265.38;4457361;32;34250;-85
2021/05/02 14:47:28;;;;;;;2.20;0.68;;;;;;;16.52;40.32;99270.97;4473213;32;35229;-85
2021/05/02 14:49:58;;;;;;;1.00;0.70;;;;;;;16.50;40.40;99279.78;4461785;32;34230;-86
2021/05/02 14:52:32;;;;;;;0.93;0.60;;;;;;;16.60;40.47;99282.09;4482961;32;34889;-85
2021/05/02 14:55:11;;;;;;;2.15;0.50;;;;;;;16.56;40.58;99283.13;4449236;32;35745;-86
2021/05/02 14:57:42;;;;;;;2.20;0.68;;;;;;;16.78;39.84;99289.38;4473161;32;35244;-85
2021/05/02 15:00:12;;;;;;;0.90;0.65;;;;;;;16.52;39.82;99294.59;4446253;32;33726;-85
2021/05/02 15:02:39;;;;;;;2.40;0.70;;;;;;;16.44;40.41;99285.25;4442027;32;33330;-87
2021/05/02 15:05:09;;;;;;;1.95;0.70;;;;;;;16.58;39.46;99289.19;4441192;32;34466;-87
2021/05/02 15:07:43;;;;;;;3.12;0.70;;;;;;;16.48;39.87;99300.84;4440893;32;34077;-87
2021/05/02 15:10:11;;;;;;;0.73;0.43;;;;;;;16.53;40.35;99301.59;4416379;32;33692;-86
2021/05/02 15:12:41;;;;;;;1.42;0.55;;;;;;;16.35;40.24;99320.53;4427928;32;34315;-86
2021/05/02 15:15:11;;;;;;;6.82;1.25;;;;;;;16.13;41.35;99328.19;4455415;32;33750;-86
2021/05/02 15:17:38;;;;;;;4.50;0.60;;;;;;;16.20;41.31;99327.09;4441264;32;34432;-87
2021/05/02 15:20:11;;;;;;;3.60;0.73;;;;;;;16.17;41.48;99327.19;4441530;32;33983;-86
2021/05/02 15:22:38;;;;;;;3.53;0.62;;;;;;;16.31;41.47;99332.00;4428549;32;34000;-86
2021/05/02 15:25:14;;;;;;;1.10;0.73;;;;;;;16.46;41.49;99336.78;4440697;32;33769;-86
2021/05/02 15:27:44;;;;;;;2.42;0.80;;;;;;;16.70;40.91;99333.41;4427783;32;34769;-86
2021/05/02 15:30:25;;;;;;;1.25;0.77;;;;;;;16.79;41.20;99346.25;4428639;32;34653;-86
2021/05/02 15:33:03;;;;;;;3.45;1.20;;;;;;;16.79;40.53;99342.75;4454556;32;34022;-86
2021/05/02 15:35:31;;;;;;;2.15;0.73;;;;;;;16.73;40.31;99341.22;4441081;32;33921;-87
2021/05/02 15:37:58;;;;;;;2.50;1.17;;;;;;;16.46;40.85;99341.16;4441079;32;34557;-87
2021/05/02 15:40:30;;;;;;;2.17;1.23;;;;;;;16.16;40.50;99363.97;4441137;32;35108;-84
2021/05/02 15:42:58;;;;;;;1.77;0.90;;;;;;;15.78;41.28;99366.81;4428373;32;33277;-85
2021/05/02 15:45:25;;;;;;;1.87;1.20;;;;;;;16.01;40.69;99367.87;4428488;32;34327;-86
2021/05/02 15:47:52;;;;;;;1.42;1.20;;;;;;;15.86;41.46;99372.69;4441061;32;35724;-86
2021/05/02 15:50:20;;;;;;;3.10;0.70;;;;;;;15.81;42.00;99370.19;4441569;32;34789;-86
2021/05/02 15:52:47;;;;;;;1.58;0.80;;;;;;;16.02;40.87;99379.25;4428816;32;32867;-86
2021/05/02 15:55:14;;;;;;;2.72;0.90;;;;;;;15.69;41.48;99375.78;4441372;32;34635;-85
2021/05/02 15:57:41;;;;;;;1.17;0.90;;;;;;;15.89;41.49;99372.62;4441109;32;35713;-85
2021/05/02 16:00:09;;;;;;;1.73;1.05;;;;;;;15.66;41.31;99357.53;4441273;32;35288;-86
2021/05/02 16:02:37;;;;;;;3.03;1.20;;;;;;;15.32;42.79;99368.03;4428601;32;34292;-87
2021/05/02 16:05:06;;;;;;;3.72;0.90;;;;;;;15.55;42.10;99352.56;4440768;32;34480;-85
2021/05/02 16:07:37;;;;;;;1.55;1.00;;;;;;;15.32;42.52;99348.81;4441087;32;34436;-84
2021/05/02 16:10:05;;;;;;;1.37;0.98;;;;;;;15.53;42.30;99364.88;4441208;32;33316;-85
2021/05/02 16:12:33;;;;;;;1.25;0.88;;;;;;;15.43;42.41;99357.25;4441183;32;33263;-85
2021/05/02 16:15:00;;;;;;;5.45;1.25;;;;;;;15.65;41.76;99349.69;4442673;32;33198;-84
2021/05/02 16:17:28;;;;;;;2.78;1.23;;;;;;;15.42;42.16;99351.16;4479739;32;34337;-84
2021/05/02 16:20:00;;;;;;;1.70;0.98;;;;;;;15.39;42.43;99361.72;4451345;32;35923;-86
2021/05/02 16:22:27;;;;;;;1.20;1.10;;;;;;;15.66;42.07;99365.41;4470592;32;33358;-84
2021/05/02 16:24:54;;;;;;;1.55;1.02;;;;;;;15.50;41.55;99378.06;4470271;32;34542;-85
2021/05/02 16:27:21;;;;;;;5.65;1.30;;;;;;;15.38;42.19;99365.22;4469308;32;34463;-86
2021/05/02 16:29:49;;;;;;;1.65;1.12;;;;;;;15.61;42.01;99362.06;4468456;32;35252;-84
2021/05/02 16:32:16;;;;;;;3.03;0.70;;;;;;;15.54;41.78;99382.34;4468375;32;34572;-84
2021/05/02 16:35:04;;;;;;;2.00;0.60;;;;;;;15.58;41.42;99367.38;4458325;32;33940;-84
2021/05/02 16:37:32;;;;;;;1.00;0.70;;;;;;;15.25;41.59;99374.31;4469121;32;35282;-85
2021/05/02 16:39:59;;;;;;;1.33;0.80;;;;;;;15.31;41.97;99353.19;4443508;32;33652;-85
2021/05/02 16:42:31;;;;;;;2.45;0.80;;;;;;;15.17;42.07;99385.88;4469599;32;33447;-86
2021/05/02 16:45:30;;;;;;;0.70;0.65;;;;;;;15.33;42.09;99379.38;4469447;32;34639;-85
2021/05/02 16:47:58;;;;;;;1.25;0.80;;;;;;;15.30;42.74;99392.53;4455945;32;34200;-86
2021/05/02 16:50:25;;;;;;;1.48;0.90;;;;;;;15.59;42.38;99390.06;4455911;32;33879;-85
2021/05/02 16:52:54;;;;;;;1.98;0.80;;;;;;;15.81;41.94;99378.06;4455778;32;34483;-85
2021/05/02 16:55:21;;;;;;;1.12;0.77;;;;;;;15.91;42.04;99395.28;4456145;32;34388;-85
2021/05/02 16:57:50;;;;;;;1.55;1.00;;;;;;;15.76;42.84;99395.69;4442800;32;33886;-86
2021/05/02 17:00:29;;;;;;;2.97;1.10;;;;;;;15.57;42.07;99397.94;4468670;32;34558;-86
2021/05/02 17:02:57;;;;;;;1.60;1.00;;;;;;;15.10;43.10;99395.66;4443348;32;34171;-88
2021/05/02 17:05:24;;;;;;;5.55;0.98;;;;;;;15.15;43.39;99401.66;4469616;32;33802;-86
2021/05/02 17:07:55;;;;;;;1.58;1.00;;;;;;;15.26;42.60;99398.78;4454603;32;34318;-87
2021/05/02 17:13:06;;;;;;;2.45;1.05;;;;;;;15.07;43.83;99393.09;4468074;32;33485;-88
2021/05/02 17:15:49;;;;;;;;;;;;;;;15.27;43.73;99397.84;4469124;32;34251;-90
2021/05/02 17:18:16;;;;;;;1.00;0.80;;;;;;;15.17;43.69;99410.31;4455432;32;35575;-86
2021/05/02 17:20:56;;;;;;;1.52;1.00;;;;;;;14.95;44.15;99409.16;4469050;32;34108;-86
2021/05/02 17:23:23;;;;;;;1.33;0.80;;;;;;;15.06;43.58;99416.72;4469083;32;33367;-89
2021/05/02 17:25:51;;;;;;;11.50;1.48;;;;;;;15.08;43.69;99412.31;4468511;32;33859;-86
2021/05/02 17:28:22;;;;;;;1.20;0.80;;;;;;;15.16;43.85;99428.72;4469597;32;34524;-88
2021/05/02 17:31:02;;;;;;;2.20;1.00;;;;;;;14.86;44.26;99433.78;4455390;32;33981;-90
2021/05/02 17:33:39;;;;;;;1.42;1.10;;;;;;;14.93;44.02;99439.72;4456609;32;33138;-87
2021/05/02 17:36:07;;;;;;;1.70;0.98;;;;;;;14.62;44.90;99434.31;4455707;32;34011;-85
2021/05/02 17:39:03;;;;;;;1.70;1.20;;;;;;;14.90;44.28;99435.41;4468308;32;36038;-85
2021/05/02 17:41:31;;;;;;;2.95;1.35;;;;;;;14.77;44.68;99434.00;4455389;32;34418;-86
2021/05/02 17:43:59;;;;;;;6.87;1.10;;;;;;;14.82;44.72;99439.13;4454850;32;34532;-87
2021/05/02 17:46:27;;;;;;;1.50;1.10;;;;;;;14.78;44.63;99432.25;4455730;32;33543;-90
2021/05/02 17:48:55;;;;;;;1.35;1.10;;;;;;;14.52;45.58;99432.84;4455541;32;35261;-87
2021/05/02 17:51:22;;;;;;;1.23;1.10;;;;;;;14.54;45.37;99440.62;4455544;32;33573;-87
2021/05/02 17:53:55;;;;;;;2.22;1.10;;;;;;;14.52;46.05;99437.19;4468753;32;33257;-88
2021/05/02 17:56:23;;;;;;;2.40;1.40;;;;;;;14.63;44.78;99446.53;4467963;32;33405;-87
2021/05/02 17:58:52;;;;;;;1.67;1.30;;;;;;;14.50;45.13;99466.00;4455337;32;34323;-86
2021/05/02 18:01:29;;;;;;;1.67;1.50;;;;;;;14.49;46.24;99468.66;4456431;32;34552;-86
2021/05/02 18:04:01;;;;;;;1.80;1.10;;;;;;;14.37;44.97;99485.47;4454724;32;33211;-87
2021/05/02 18:06:28;;;;;;;;;;;;;;;14.31;45.60;99480.34;4443222;32;33519;-87
2021/05/02 18:08:55;;;;;;;2.20;1.58;;;;;;;14.16;45.53;99505.03;4448686;32;35413;-85
2021/05/02 18:11:23;;;;;;;2.42;1.73;;;;;;;14.16;45.64;99496.34;4433084;32;33510;-84
2021/05/02 18:13:52;;;;;;;1.90;1.50;;;;;;;13.87;45.86;99504.72;4439556;32;33031;-84
2021/05/02 18:16:19;;;;;;;2.42;1.60;;;;;;;14.24;45.12;99510.97;4463235;32;34855;-84
2021/05/02 18:18:46;;;;;;;2.33;1.80;;;;;;;14.23;45.66;99509.25;4456659;32;34784;-86
2021/05/02 18:21:14;;;;;;;2.30;1.67;;;;;;;14.38;45.38;99508.09;4452190;32;35105;-88
2021/05/02 18:23:42;;;;;;;2.78;1.65;;;;;;;14.25;45.17;99510.09;4451367;32;33356;-86
2021/05/02 18:26:15;;;;;;;2.35;1.65;;;;;;;14.35;45.33;99517.78;4452677;32;34545;-84
2021/05/02 18:28:48;;;;;;;2.03;1.62;;;;;;;14.28;45.23;99527.47;4439374;32;35003;-86
2021/05/02 18:31:28;;;;;;;4.57;2.17;;;;;;;14.33;46.00;99530.03;4430581;32;35398;-87
2021/05/02 18:34:05;;;;;;;2.72;1.80;;;;;;;14.30;45.39;99528.34;4454050;32;33366;-85
2021/05/02 18:36:36;;;;;;;2.42;1.70;;;;;;;14.35;45.07;99525.62;4454445;32;34305;-86
2021/05/02 18:39:06;;;;;;;3.00;2.00;;;;;;;14.37;44.91;99522.09;4441426;32;35811;-86
2021/05/02 18:41:44;;;;;;;3.65;1.87;;;;;;;14.35;45.34;99523.03;4453699;32;35444;-86
2021/05/02 18:44:34;;;;;;;2.30;1.73;;;;;;;14.17;45.71;99527.69;4443968;32;33798;-86
2021/05/02 18:47:11;;;;;;;2.62;2.20;;;;;;;14.13;45.95;99523.41;4453398;32;34715;-87
2021/05/02 18:49:58;;;;;;;3.08;2.50;;;;;;;14.35;45.70;99520.41;4454240;32;35977;-86
2021/05/02 18:52:25;;;;;;;3.50;2.30;;;;;;;14.30;45.59;99504.81;4441369;32;34038;-84
2021/05/02 18:54:52;;;;;;;2.78;2.12;;;;;;;14.40;45.19;99508.09;4441374;32;34313;-87
2021/05/02 18:57:20;;;;;;;3.03;2.42;;;;;;;14.34;46.03;99505.59;4454056;32;35561;-86
2021/05/02 18:59:47;;;;;;;2.12;1.92;;;;;;;14.01;46.79;99513.16;4455327;32;35762;-86
2021/05/02 19:02:14;;;;;;;4.50;2.10;;;;;;;13.86;47.01;99508.22;4454207;32;33859;-86
2021/05/02 19:04:48;;;;;;;2.60;2.10;;;;;;;13.89;46.82;99520.37;4441985;32;33460;-85
2021/05/02 19:07:16;;;;;;;2.60;1.92;;;;;;;13.98;47.19;99528.03;4441441;32;34609;-86
2021/05/02 19:09:43;;;;;;;2.40;2.12;;;;;;;14.09;47.04;99547.03;4453938;32;34527;-86
2021/05/02 19:12:11;;;;;;;5.03;2.28;;;;;;;14.13;47.26;99548.69;4441285;32;33606;-86
2021/05/02 19:14:39;;;;;;;2.75;2.10;;;;;;;14.06;46.94;99549.69;4454330;32;34091;-86
2021/05/02 19:17:06;;;;;;;3.15;2.42;;;;;;;14.18;46.84;99550.34;4453982;32;34380;-86
2021/05/02 19:20:10;;;;;;;3.90;2.58;;;;;;;14.05;46.80;99561.03;4440686;32;34352;-87
2021/05/02 19:23:35;;;;;;;2.50;2.00;;;;;;;14.08;47.07;99569.69;4385639;32;35105;-87
2021/05/02 19:26:03;;;;;;;3.03;2.40;;;;;;;13.72;48.03;99566.84;4393835;32;34360;-89
2021/05/02 19:28:33;;;;;;;2.50;2.12;;;;;;;13.87;47.90;99567.47;4382141;32;33423;-86
2021/05/02 19:31:00;;;;;;;2.30;2.10;;;;;;;14.01;47.14;99575.91;4394565;32;34302;-85
2021/05/02 19:33:35;;;;;;;2.67;2.45;;;;;;;14.00;47.45;99576.78;4407129;32;34482;-85
2021/05/02 19:36:03;;;;;;;3.00;2.33;;;;;;;13.89;47.67;99570.03;4382030;32;33172;-88
2021/05/02 19:38:31;;;;;;;4.25;2.33;;;;;;;13.73;48.16;99572.06;4382158;32;33489;-86
2021/05/02 19:40:59;;;;;;;2.70;2.25;;;;;;;13.67;48.35;99569.53;4394525;32;34407;-85
2021/05/02 19:43:26;;;;;;;4.80;2.75;;;;;;;13.83;48.05;99564.94;4382031;32;34308;-85
2021/05/02 19:45:53;;;;;;;3.10;2.80;;;;;;;13.91;48.00;99563.91;4382053;32;33310;-86
2021/05/02 19:48:21;;;;;;;5.97;2.80;;;;;;;13.94;47.94;99574.31;4406798;32;33951;-88
2021/05/02 19:50:48;;;;;;;3.17;2.47;;;;;;;13.98;47.43;99581.19;4406869;32;34411;-86
2021/05/02 19:53:15;;;;;;;3.53;2.67;;;;;;;13.83;47.93;99578.88;4406797;32;35193;-87
2021/05/02 19:55:44;;;;;;;3.58;2.50;;;;;;;13.86;48.17;99586.62;4394374;32;33287;-87
2021/05/02 19:58:12;;;;;;;3.55;2.60;;;;;;;13.95;47.96;99593.47;4406925;32;33850;-84
2021/05/02 20:00:41;;;;;;;2.97;2.65;;;;;;;13.84;48.30;99598.00;4435172;32;35173;-86
2021/05/02 20:03:09;;;;;;;3.22;2.50;;;;;;;13.65;48.82;99601.78;4440559;32;33812;-86
2021/05/02 20:05:38;;;;;;;4.18;2.53;;;;;;;13.82;48.57;99605.88;4440503;32;33257;-86
2021/05/02 20:08:08;;;;;;;;;;;;;;;14.03;47.91;99610.75;4441163;32;33849;-85
2021/05/02 20:10:37;;;;;;;3.72;2.75;;;;;;;14.12;47.53;99615.81;4440442;32;35555;-85
2021/05/02 20:13:08;;;;;;;3.15;2.50;;;;;;;13.84;48.15;99622.41;4440809;32;34624;-85
2021/05/02 20:15:36;;;;;;;3.72;2.50;;;;;;;14.08;47.58;99623.75;4440301;32;33954;-85
2021/05/02 20:18:04;;;;;;;3.00;2.70;;;;;;;14.31;47.29;99632.06;4457138;32;33930;-88
2021/05/02 20:20:32;;;;;;;3.05;2.70;;;;;;;14.22;47.15;99629.59;4443244;32;35691;-85
2021/05/02 20:23:00;;;;;;;2.72;2.40;;;;;;;14.03;47.65;99625.56;4455763;32;33390;-85
2021/05/02 20:25:27;;;;;;;3.75;2.22;;;;;;;14.27;47.11;99631.25;4455698;32;33396;-85
2021/05/02 20:27:55;;;;;;;2.55;2.08;;;;;;;14.26;47.18;99634.75;4455626;32;35037;-85
2021/05/02 20:30:23;;;;;;;3.33;1.87;;;;;;;14.29;47.15;99627.75;4442473;32;34359;-84
2021/05/02 20:32:59;;;;;;;2.62;2.10;;;;;;;14.27;47.65;99636.47;4454816;32;33921;-85
2021/05/02 20:35:31;;;;;;;4.03;2.70;;;;;;;14.31;47.81;99639.09;4468624;32;33468;-85
2021/05/02 20:38:00;;;;;;;5.13;3.27;;;;;;;13.89;49.35;99635.41;4442427;32;33382;-85
2021/05/02 20:40:28;;;;;;;4.18;3.08;;;;;;;13.95;49.94;99632.69;4455469;32;35744;-84
2021/05/02 20:42:55;;;;;;;4.22;3.22;;;;;;;13.89;50.36;99638.00;4455345;32;34056;-84
2021/05/02 20:45:22;;;;;;;4.78;3.33;;;;;;;13.81;50.72;99634.66;4442635;32;33060;-85